sensor_id;sensor_type;location;lat;lon;timestamp;temperature;humidity
2387;DHT22;49473;50.772;8.768;2023-02-24T00:01:35;8.20;99.90
2387;DHT22;49473;50.772;8.768;2023-02-24T00:04:05;8.20;99.90
2387;DHT22;49473;50.772;8.768;2023-02-24T00:06:34;8.10;99.90
2387;DHT22;49473;50.772;8.768;2023-02-24T00:09:03;8.10;99.90
2387;DHT22;49473;50.772;8.768;2023-02-24T00:11:33;8.10;99.90
2387;DHT22;49473;50.772;8.768;2023-02-24T00:14:00;8.10;99.90
2387;DHT22;49473;50.772;8.768;2023-02-24T00:16:30;8.10;99.90
2387;DHT22;49473;50.772;8.768;2023-02-24T00:18:58;8.10;99.90
2387;DHT22;49473;50.772;8.768;2023-02-24T00:21:25;8.10;99.90
2387;DHT22;49473;50.772;8.768;2023-02-24T00:23:53;8.00;99.90
2387;DHT22;49473;50.772;8.768;2023-02-24T00:26:21;8.00;99.90
2387;DHT22;49473;50.772;8.768;2023-02-24T00:28:48;7.90;99.90
2387;DHT22;49473;50.772;8.768;2023-02-24T00:31:17;7.70;99.90
2387;DHT22;49473;50.772;8.768;2023-02-24T00:33:45;7.40;99.90
2387;DHT22;49473;50.772;8.768;2023-02-24T00:36:14;7.20;99.90
2387;DHT22;49473;50.772;8.768;2023-02-24T00:38:48;7.00;99.90
2387;DHT22;49473;50.772;8.768;2023-02-24T00:41:17;7.00;99.90
2387;DHT22;49473;50.772;8.768;2023-02-24T00:43:48;7.00;99.90
2387;DHT22;49473;50.772;8.768;2023-02-24T00:46:17;6.80;99.90
2387;DHT22;49473;50.772;8.768;2023-02-24T00:48:45;6.80;99.90
2387;DHT22;49473;50.772;8.768;2023-02-24T00:51:14;6.80;99.90
2387;DHT22;49473;50.772;8.768;2023-02-24T00:53:42;6.90;99.90
2387;DHT22;49473;50.772;8.768;2023-02-24T00:56:10;6.90;99.90
2387;DHT22;49473;50.772;8.768;2023-02-24T00:58:38;6.90;99.90
2387;DHT22;49473;50.772;8.768;2023-02-24T01:01:11;6.70;99.90
2387;DHT22;49473;50.772;8.768;2023-02-24T01:03:38;6.70;99.90
2387;DHT22;49473;50.772;8.768;2023-02-24T01:06:05;6.60;99.90
2387;DHT22;49473;50.772;8.768;2023-02-24T01:08:32;6.60;99.90
2387;DHT22;49473;50.772;8.768;2023-02-24T01:11:01;6.60;99.90
2387;DHT22;49473;50.772;8.768;2023-02-24T01:13:46;6.60;99.90
2387;DHT22;49473;50.772;8.768;2023-02-24T01:16:14;6.70;99.90
2387;DHT22;49473;50.772;8.768;2023-02-24T01:18:43;6.70;99.90
2387;DHT22;49473;50.772;8.768;2023-02-24T01:21:10;6.70;99.90
2387;DHT22;49473;50.772;8.768;2023-02-24T01:23:39;6.80;99.90
2387;DHT22;49473;50.772;8.768;2023-02-24T01:26:06;6.90;99.90
2387;DHT22;49473;50.772;8.768;2023-02-24T01:28:32;6.90;99.90
2387;DHT22;49473;50.772;8.768;2023-02-24T01:31:00;6.80;99.90
2387;DHT22;49473;50.772;8.768;2023-02-24T01:33:29;6.60;99.90
2387;DHT22;49473;50.772;8.768;2023-02-24T01:36:07;6.40;99.90
2387;DHT22;49473;50.772;8.768;2023-02-24T01:38:34;6.40;99.90
2387;DHT22;49473;50.772;8.768;2023-02-24T01:41:02;6.30;99.90
2387;DHT22;49473;50.772;8.768;2023-02-24T01:43:29;6.30;99.90
2387;DHT22;49473;50.772;8.768;2023-02-24T01:45:56;6.20;99.90
2387;DHT22;49473;50.772;8.768;2023-02-24T01:48:23;6.20;99.90
2387;DHT22;49473;50.772;8.768;2023-02-24T01:50:52;6.10;99.90
2387;DHT22;49473;50.772;8.768;2023-02-24T01:53:19;6.20;99.90
2387;DHT22;49473;50.772;8.768;2023-02-24T01:55:48;6.20;99.90
2387;DHT22;49473;50.772;8.768;2023-02-24T01:58:21;6.30;99.90
2387;DHT22;49473;50.772;8.768;2023-02-24T02:00:49;6.40;99.90
2387;DHT22;49473;50.772;8.768;2023-02-24T02:03:23;6.30;99.90
2387;DHT22;49473;50.772;8.768;2023-02-24T02:05:58;6.20;99.90
2387;DHT22;49473;50.772;8.768;2023-02-24T02:08:26;6.20;99.90
2387;DHT22;49473;50.772;8.768;2023-02-24T02:10:54;6.20;99.90
2387;DHT22;49473;50.772;8.768;2023-02-24T02:13:25;6.30;99.90
2387;DHT22;49473;50.772;8.768;2023-02-24T02:16:01;6.30;99.90
2387;DHT22;49473;50.772;8.768;2023-02-24T02:18:41;6.20;99.90
2387;DHT22;49473;50.772;8.768;2023-02-24T02:24:47;6.30;99.90
2387;DHT22;49473;50.772;8.768;2023-02-24T02:27:40;6.50;99.90
2387;DHT22;49473;50.772;8.768;2023-02-24T02:30:47;6.50;99.90
2387;DHT22;49473;50.772;8.768;2023-02-24T02:33:56;6.40;99.90
2387;DHT22;49473;50.772;8.768;2023-02-24T02:36:34;6.40;99.90
2387;DHT22;49473;50.772;8.768;2023-02-24T02:39:10;6.60;99.90
2387;DHT22;49473;50.772;8.768;2023-02-24T02:41:46;6.60;99.90
2387;DHT22;49473;50.772;8.768;2023-02-24T02:44:19;6.60;99.90
2387;DHT22;49473;50.772;8.768;2023-02-24T02:46:52;6.70;99.90
2387;DHT22;49473;50.772;8.768;2023-02-24T02:49:28;6.80;99.90
2387;DHT22;49473;50.772;8.768;2023-02-24T02:52:02;6.80;99.90
2387;DHT22;49473;50.772;8.768;2023-02-24T02:54:37;6.90;99.90
2387;DHT22;49473;50.772;8.768;2023-02-24T02:57:13;6.90;99.90
2387;DHT22;49473;50.772;8.768;2023-02-24T02:59:46;6.90;99.90
2387;DHT22;49473;50.772;8.768;2023-02-24T03:02:15;6.90;99.90
2387;DHT22;49473;50.772;8.768;2023-02-24T03:04:50;6.90;99.90
2387;DHT22;49473;50.772;8.768;2023-02-24T03:07:19;6.90;99.90
2387;DHT22;49473;50.772;8.768;2023-02-24T03:09:50;6.90;99.90
2387;DHT22;49473;50.772;8.768;2023-02-24T03:12:22;6.90;99.90
2387;DHT22;49473;50.772;8.768;2023-02-24T03:14:52;6.90;99.90
2387;DHT22;49473;50.772;8.768;2023-02-24T03:17:25;6.80;99.90
2387;DHT22;49473;50.772;8.768;2023-02-24T03:20:00;6.80;99.90
2387;DHT22;49473;50.772;8.768;2023-02-24T03:22:44;6.80;99.90
2387;DHT22;49473;50.772;8.768;2023-02-24T03:25:14;6.80;99.90
2387;DHT22;49473;50.772;8.768;2023-02-24T03:27:48;6.70;99.90
2387;DHT22;49473;50.772;8.768;2023-02-24T03:30:18;6.70;99.90
2387;DHT22;49473;50.772;8.768;2023-02-24T03:32:50;6.70;99.90
2387;DHT22;49473;50.772;8.768;2023-02-24T03:35:24;6.60;99.90
2387;DHT22;49473;50.772;8.768;2023-02-24T03:37:52;6.50;99.90
2387;DHT22;49473;50.772;8.768;2023-02-24T03:40:22;6.50;99.90
2387;DHT22;49473;50.772;8.768;2023-02-24T03:42:57;6.40;99.90
2387;DHT22;49473;50.772;8.768;2023-02-24T03:45:25;6.40;99.90
2387;DHT22;49473;50.772;8.768;2023-02-24T03:47:52;6.50;99.90
2387;DHT22;49473;50.772;8.768;2023-02-24T03:50:21;6.50;99.90
2387;DHT22;49473;50.772;8.768;2023-02-24T03:52:58;6.50;99.90
2387;DHT22;49473;50.772;8.768;2023-02-24T03:55:37;6.50;99.90
2387;DHT22;49473;50.772;8.768;2023-02-24T03:58:12;6.50;99.90
2387;DHT22;49473;50.772;8.768;2023-02-24T04:00:48;6.50;99.90
2387;DHT22;49473;50.772;8.768;2023-02-24T04:03:22;6.50;99.90
2387;DHT22;49473;50.772;8.768;2023-02-24T04:06:04;6.50;99.90
2387;DHT22;49473;50.772;8.768;2023-02-24T04:08:38;6.50;99.90
2387;DHT22;49473;50.772;8.768;2023-02-24T04:11:13;6.50;99.90
2387;DHT22;49473;50.772;8.768;2023-02-24T04:13:44;6.50;99.90
2387;DHT22;49473;50.772;8.768;2023-02-24T04:16:16;6.50;99.90
2387;DHT22;49473;50.772;8.768;2023-02-24T04:18:55;6.50;99.90
2387;DHT22;49473;50.772;8.768;2023-02-24T04:21:26;6.50;99.90
2387;DHT22;49473;50.772;8.768;2023-02-24T04:23:56;6.50;99.90
2387;DHT22;49473;50.772;8.768;2023-02-24T04:26:25;6.60;99.90
2387;DHT22;49473;50.772;8.768;2023-02-24T04:28:53;6.40;99.90
2387;DHT22;49473;50.772;8.768;2023-02-24T04:31:21;6.50;99.90
2387;DHT22;49473;50.772;8.768;2023-02-24T04:33:51;6.60;99.90
2387;DHT22;49473;50.772;8.768;2023-02-24T04:36:18;6.60;99.90
2387;DHT22;49473;50.772;8.768;2023-02-24T04:38:47;6.70;99.90
2387;DHT22;49473;50.772;8.768;2023-02-24T04:41:15;6.70;99.90
2387;DHT22;49473;50.772;8.768;2023-02-24T04:43:46;6.70;99.90
2387;DHT22;49473;50.772;8.768;2023-02-24T04:46:13;6.70;99.90
2387;DHT22;49473;50.772;8.768;2023-02-24T04:48:40;6.80;99.90
2387;DHT22;49473;50.772;8.768;2023-02-24T04:51:07;6.80;99.90
2387;DHT22;49473;50.772;8.768;2023-02-24T04:53:34;6.70;99.90
2387;DHT22;49473;50.772;8.768;2023-02-24T04:56:05;6.70;99.90
2387;DHT22;49473;50.772;8.768;2023-02-24T04:58:34;6.60;99.90
2387;DHT22;49473;50.772;8.768;2023-02-24T05:01:06;6.60;99.90
2387;DHT22;49473;50.772;8.768;2023-02-24T05:03:35;6.60;99.90
2387;DHT22;49473;50.772;8.768;2023-02-24T05:06:02;6.60;99.90
2387;DHT22;49473;50.772;8.768;2023-02-24T05:08:31;6.70;99.90
2387;DHT22;49473;50.772;8.768;2023-02-24T05:10:59;6.70;99.90
2387;DHT22;49473;50.772;8.768;2023-02-24T05:13:30;6.70;99.90
2387;DHT22;49473;50.772;8.768;2023-02-24T05:15:59;6.70;99.90
2387;DHT22;49473;50.772;8.768;2023-02-24T05:18:28;6.70;99.90
2387;DHT22;49473;50.772;8.768;2023-02-24T05:21:04;6.70;99.90
2387;DHT22;49473;50.772;8.768;2023-02-24T05:23:49;6.60;99.90
2387;DHT22;49473;50.772;8.768;2023-02-24T05:26:17;6.60;99.90
2387;DHT22;49473;50.772;8.768;2023-02-24T05:28:47;6.50;99.90
2387;DHT22;49473;50.772;8.768;2023-02-24T05:31:18;6.60;99.90
2387;DHT22;49473;50.772;8.768;2023-02-24T05:33:47;6.60;99.90
2387;DHT22;49473;50.772;8.768;2023-02-24T05:36:17;6.60;99.90
2387;DHT22;49473;50.772;8.768;2023-02-24T05:38:45;6.70;99.90
2387;DHT22;49473;50.772;8.768;2023-02-24T05:41:14;6.70;99.90
2387;DHT22;49473;50.772;8.768;2023-02-24T05:43:42;6.60;99.90
2387;DHT22;49473;50.772;8.768;2023-02-24T05:46:14;6.70;99.90
2387;DHT22;49473;50.772;8.768;2023-02-24T05:48:40;6.70;99.90
2387;DHT22;49473;50.772;8.768;2023-02-24T05:51:09;6.70;99.90
2387;DHT22;49473;50.772;8.768;2023-02-24T05:53:37;6.60;99.90
2387;DHT22;49473;50.772;8.768;2023-02-24T05:56:05;6.60;99.90
2387;DHT22;49473;50.772;8.768;2023-02-24T05:58:32;6.60;99.90
2387;DHT22;49473;50.772;8.768;2023-02-24T06:00:59;6.60;99.90
2387;DHT22;49473;50.772;8.768;2023-02-24T06:03:32;6.60;99.90
2387;DHT22;49473;50.772;8.768;2023-02-24T06:06:00;6.60;99.90
2387;DHT22;49473;50.772;8.768;2023-02-24T06:08:30;6.60;99.90
2387;DHT22;49473;50.772;8.768;2023-02-24T06:11:07;6.50;99.90
2387;DHT22;49473;50.772;8.768;2023-02-24T06:13:35;6.40;99.90
2387;DHT22;49473;50.772;8.768;2023-02-24T06:16:02;6.40;99.90
2387;DHT22;49473;50.772;8.768;2023-02-24T06:18:29;6.30;99.90
2387;DHT22;49473;50.772;8.768;2023-02-24T06:21:00;6.30;99.90
2387;DHT22;49473;50.772;8.768;2023-02-24T06:23:26;6.40;99.90
2387;DHT22;49473;50.772;8.768;2023-02-24T06:25:53;6.40;99.90
2387;DHT22;49473;50.772;8.768;2023-02-24T06:28:22;6.40;99.90
2387;DHT22;49473;50.772;8.768;2023-02-24T06:30:49;6.40;99.90
2387;DHT22;49473;50.772;8.768;2023-02-24T06:33:16;6.50;99.90
2387;DHT22;49473;50.772;8.768;2023-02-24T06:35:43;6.50;99.90
2387;DHT22;49473;50.772;8.768;2023-02-24T06:38:11;6.50;99.90
2387;DHT22;49473;50.772;8.768;2023-02-24T06:40:39;6.50;99.90
2387;DHT22;49473;50.772;8.768;2023-02-24T06:43:08;6.50;99.90
2387;DHT22;49473;50.772;8.768;2023-02-24T06:45:35;6.50;99.90
2387;DHT22;49473;50.772;8.768;2023-02-24T06:48:02;6.60;99.90
2387;DHT22;49473;50.772;8.768;2023-02-24T06:50:28;6.50;99.90
2387;DHT22;49473;50.772;8.768;2023-02-24T06:52:57;6.60;99.90
2387;DHT22;49473;50.772;8.768;2023-02-24T06:55:26;6.50;99.90
2387;DHT22;49473;50.772;8.768;2023-02-24T06:57:55;6.50;99.90
2387;DHT22;49473;50.772;8.768;2023-02-24T07:00:23;6.60;99.90
2387;DHT22;49473;50.772;8.768;2023-02-24T07:03:02;6.50;99.90
2387;DHT22;49473;50.772;8.768;2023-02-24T07:05:40;6.50;99.90
2387;DHT22;49473;50.772;8.768;2023-02-24T07:08:06;6.50;99.90
2387;DHT22;49473;50.772;8.768;2023-02-24T07:10:35;6.40;99.90
2387;DHT22;49473;50.772;8.768;2023-02-24T07:13:02;6.50;99.90
2387;DHT22;49473;50.772;8.768;2023-02-24T07:15:29;6.60;99.90
2387;DHT22;49473;50.772;8.768;2023-02-24T07:17:56;6.60;99.90
2387;DHT22;49473;50.772;8.768;2023-02-24T07:20:23;6.60;99.90
2387;DHT22;49473;50.772;8.768;2023-02-24T07:22:51;6.60;99.90
2387;DHT22;49473;50.772;8.768;2023-02-24T07:25:18;6.60;99.90
2387;DHT22;49473;50.772;8.768;2023-02-24T07:27:59;6.60;99.90
2387;DHT22;49473;50.772;8.768;2023-02-24T07:30:27;6.50;99.90
2387;DHT22;49473;50.772;8.768;2023-02-24T07:32:54;6.50;99.90
2387;DHT22;49473;50.772;8.768;2023-02-24T07:35:21;6.40;99.90
2387;DHT22;49473;50.772;8.768;2023-02-24T07:37:49;6.30;99.90
2387;DHT22;49473;50.772;8.768;2023-02-24T07:40:17;6.20;99.90
2387;DHT22;49473;50.772;8.768;2023-02-24T07:42:46;6.20;99.90
2387;DHT22;49473;50.772;8.768;2023-02-24T07:45:15;6.10;99.90
2387;DHT22;49473;50.772;8.768;2023-02-24T07:47:41;6.10;99.90
2387;DHT22;49473;50.772;8.768;2023-02-24T07:50:09;6.00;99.90
2387;DHT22;49473;50.772;8.768;2023-02-24T07:52:39;6.00;99.90
2387;DHT22;49473;50.772;8.768;2023-02-24T07:55:06;6.10;99.90
2387;DHT22;49473;50.772;8.768;2023-02-24T07:57:34;6.10;99.90
2387;DHT22;49473;50.772;8.768;2023-02-24T08:00:04;6.20;99.90
2387;DHT22;49473;50.772;8.768;2023-02-24T08:02:46;6.20;99.90
2387;DHT22;49473;50.772;8.768;2023-02-24T08:05:14;6.20;99.90
2387;DHT22;49473;50.772;8.768;2023-02-24T08:07:42;6.10;99.90
2387;DHT22;49473;50.772;8.768;2023-02-24T08:10:14;6.20;99.90
2387;DHT22;49473;50.772;8.768;2023-02-24T08:12:50;6.30;99.90
2387;DHT22;49473;50.772;8.768;2023-02-24T08:15:21;6.50;99.90
2387;DHT22;49473;50.772;8.768;2023-02-24T08:18:00;6.70;99.90
2387;DHT22;49473;50.772;8.768;2023-02-24T08:20:28;6.90;99.90
2387;DHT22;49473;50.772;8.768;2023-02-24T08:23:01;7.10;99.90
2387;DHT22;49473;50.772;8.768;2023-02-24T08:25:30;7.40;99.90
2387;DHT22;49473;50.772;8.768;2023-02-24T08:28:01;7.60;99.90
2387;DHT22;49473;50.772;8.768;2023-02-24T08:30:31;7.80;99.90
2387;DHT22;49473;50.772;8.768;2023-02-24T08:33:05;7.70;99.90
2387;DHT22;49473;50.772;8.768;2023-02-24T08:35:35;8.00;99.90
2387;DHT22;49473;50.772;8.768;2023-02-24T08:38:10;8.30;99.90
2387;DHT22;49473;50.772;8.768;2023-02-24T08:40:41;8.30;99.90
2387;DHT22;49473;50.772;8.768;2023-02-24T08:43:19;8.20;99.90
2387;DHT22;49473;50.772;8.768;2023-02-24T08:45:57;8.10;99.90
2387;DHT22;49473;50.772;8.768;2023-02-24T08:48:29;8.10;99.90
2387;DHT22;49473;50.772;8.768;2023-02-24T08:51:07;8.10;99.90
2387;DHT22;49473;50.772;8.768;2023-02-24T08:53:35;8.20;99.90
2387;DHT22;49473;50.772;8.768;2023-02-24T08:56:06;8.10;99.90
2387;DHT22;49473;50.772;8.768;2023-02-24T08:58:36;8.30;99.90
2387;DHT22;49473;50.772;8.768;2023-02-24T09:01:09;8.30;99.90
2387;DHT22;49473;50.772;8.768;2023-02-24T09:03:44;8.60;99.90
2387;DHT22;49473;50.772;8.768;2023-02-24T09:06:13;9.10;99.90
2387;DHT22;49473;50.772;8.768;2023-02-24T09:08:43;9.20;99.90
2387;DHT22;49473;50.772;8.768;2023-02-24T09:11:12;9.40;99.90
2387;DHT22;49473;50.772;8.768;2023-02-24T09:13:41;9.70;99.90
2387;DHT22;49473;50.772;8.768;2023-02-24T09:16:17;9.70;99.90
2387;DHT22;49473;50.772;8.768;2023-02-24T09:18:45;9.70;99.90
2387;DHT22;49473;50.772;8.768;2023-02-24T09:21:33;9.50;99.90
2387;DHT22;49473;50.772;8.768;2023-02-24T09:24:31;9.50;99.90
2387;DHT22;49473;50.772;8.768;2023-02-24T09:26:57;9.10;99.90
2387;DHT22;49473;50.772;8.768;2023-02-24T09:29:25;8.80;99.90
2387;DHT22;49473;50.772;8.768;2023-02-24T09:32:14;8.70;99.90
2387;DHT22;49473;50.772;8.768;2023-02-24T09:34:43;8.60;99.90
2387;DHT22;49473;50.772;8.768;2023-02-24T09:37:12;8.50;99.90
2387;DHT22;49473;50.772;8.768;2023-02-24T09:39:50;8.50;99.90
2387;DHT22;49473;50.772;8.768;2023-02-24T09:42:35;8.60;99.90
2387;DHT22;49473;50.772;8.768;2023-02-24T09:45:17;8.60;99.90
2387;DHT22;49473;50.772;8.768;2023-02-24T09:47:58;8.40;99.90
2387;DHT22;49473;50.772;8.768;2023-02-24T09:50:37;8.20;99.90
2387;DHT22;49473;50.772;8.768;2023-02-24T09:53:14;7.90;99.90
2387;DHT22;49473;50.772;8.768;2023-02-24T09:55:47;8.00;99.90
2387;DHT22;49473;50.772;8.768;2023-02-24T09:58:34;8.00;99.90
2387;DHT22;49473;50.772;8.768;2023-02-24T10:01:11;7.80;99.90
2387;DHT22;49473;50.772;8.768;2023-02-24T10:03:51;7.70;99.90
2387;DHT22;49473;50.772;8.768;2023-02-24T10:06:35;7.40;99.90
2387;DHT22;49473;50.772;8.768;2023-02-24T10:09:08;7.40;99.90
2387;DHT22;49473;50.772;8.768;2023-02-24T10:11:41;7.40;99.90
2387;DHT22;49473;50.772;8.768;2023-02-24T10:14:22;7.30;99.90
2387;DHT22;49473;50.772;8.768;2023-02-24T10:16:53;7.20;99.90
2387;DHT22;49473;50.772;8.768;2023-02-24T10:19:34;7.10;99.90
2387;DHT22;49473;50.772;8.768;2023-02-24T10:22:09;7.10;99.90
2387;DHT22;49473;50.772;8.768;2023-02-24T10:24:54;7.00;99.90
2387;DHT22;49473;50.772;8.768;2023-02-24T10:27:53;6.80;99.90
2387;DHT22;49473;50.772;8.768;2023-02-24T10:30:33;6.90;99.90
2387;DHT22;49473;50.772;8.768;2023-02-24T10:33:18;6.70;99.90
2387;DHT22;49473;50.772;8.768;2023-02-24T10:35:50;6.70;99.90
2387;DHT22;49473;50.772;8.768;2023-02-24T10:38:20;6.60;99.90
2387;DHT22;49473;50.772;8.768;2023-02-24T10:40:51;6.50;99.90
2387;DHT22;49473;50.772;8.768;2023-02-24T10:43:23;6.40;99.90
2387;DHT22;49473;50.772;8.768;2023-02-24T10:45:55;6.40;99.90
2387;DHT22;49473;50.772;8.768;2023-02-24T10:48:32;6.50;99.90
2387;DHT22;49473;50.772;8.768;2023-02-24T10:51:11;6.60;99.90
2387;DHT22;49473;50.772;8.768;2023-02-24T10:53:47;6.70;99.90
2387;DHT22;49473;50.772;8.768;2023-02-24T10:56:38;6.80;99.90
2387;DHT22;49473;50.772;8.768;2023-02-24T10:59:11;6.70;99.90
2387;DHT22;49473;50.772;8.768;2023-02-24T11:02:16;6.70;99.90
2387;DHT22;49473;50.772;8.768;2023-02-24T11:04:57;6.60;99.90
2387;DHT22;49473;50.772;8.768;2023-02-24T11:07:49;6.50;99.90
2387;DHT22;49473;50.772;8.768;2023-02-24T11:10:23;6.50;99.90
2387;DHT22;49473;50.772;8.768;2023-02-24T11:12:59;6.60;99.90
2387;DHT22;49473;50.772;8.768;2023-02-24T11:15:45;6.60;99.90
2387;DHT22;49473;50.772;8.768;2023-02-24T11:18:31;6.60;99.90
2387;DHT22;49473;50.772;8.768;2023-02-24T11:21:00;6.50;99.90
2387;DHT22;49473;50.772;8.768;2023-02-24T11:23:30;6.40;99.90
2387;DHT22;49473;50.772;8.768;2023-02-24T11:26:02;6.50;99.90
2387;DHT22;49473;50.772;8.768;2023-02-24T11:28:49;6.50;99.90
2387;DHT22;49473;50.772;8.768;2023-02-24T11:31:31;6.60;99.90
2387;DHT22;49473;50.772;8.768;2023-02-24T11:34:04;6.40;99.90
2387;DHT22;49473;50.772;8.768;2023-02-24T11:36:39;6.60;99.90
2387;DHT22;49473;50.772;8.768;2023-02-24T11:39:23;6.60;99.90
2387;DHT22;49473;50.772;8.768;2023-02-24T11:41:58;6.50;99.90
2387;DHT22;49473;50.772;8.768;2023-02-24T11:44:29;6.70;99.90
2387;DHT22;49473;50.772;8.768;2023-02-24T11:47:02;6.60;99.90
2387;DHT22;49473;50.772;8.768;2023-02-24T11:49:38;6.80;99.90
2387;DHT22;49473;50.772;8.768;2023-02-24T11:52:12;6.70;99.90
2387;DHT22;49473;50.772;8.768;2023-02-24T11:54:43;6.70;99.90
2387;DHT22;49473;50.772;8.768;2023-02-24T11:57:15;6.80;99.90
2387;DHT22;49473;50.772;8.768;2023-02-24T11:59:45;6.70;99.90
2387;DHT22;49473;50.772;8.768;2023-02-24T12:02:18;6.80;99.90
2387;DHT22;49473;50.772;8.768;2023-02-24T12:04:54;6.80;99.90
2387;DHT22;49473;50.772;8.768;2023-02-24T12:07:27;6.70;99.90
2387;DHT22;49473;50.772;8.768;2023-02-24T12:10:00;6.60;99.90
2387;DHT22;49473;50.772;8.768;2023-02-24T12:12:38;6.60;99.90
2387;DHT22;49473;50.772;8.768;2023-02-24T12:15:11;6.50;99.90
2387;DHT22;49473;50.772;8.768;2023-02-24T12:17:45;6.50;99.90
2387;DHT22;49473;50.772;8.768;2023-02-24T12:20:22;6.40;99.90
2387;DHT22;49473;50.772;8.768;2023-02-24T12:22:55;6.40;99.90
2387;DHT22;49473;50.772;8.768;2023-02-24T12:25:25;6.50;99.90
2387;DHT22;49473;50.772;8.768;2023-02-24T12:28:04;6.60;99.90
2387;DHT22;49473;50.772;8.768;2023-02-24T12:30:43;6.70;99.90
2387;DHT22;49473;50.772;8.768;2023-02-24T12:33:30;6.70;99.90
2387;DHT22;49473;50.772;8.768;2023-02-24T12:36:11;6.70;99.90
2387;DHT22;49473;50.772;8.768;2023-02-24T12:38:48;6.70;99.90
2387;DHT22;49473;50.772;8.768;2023-02-24T12:41:27;6.60;99.90
2387;DHT22;49473;50.772;8.768;2023-02-24T12:44:03;6.50;99.90
2387;DHT22;49473;50.772;8.768;2023-02-24T12:46:35;6.40;99.90
2387;DHT22;49473;50.772;8.768;2023-02-24T12:49:27;6.30;99.90
2387;DHT22;49473;50.772;8.768;2023-02-24T12:52:04;6.10;99.90
2387;DHT22;49473;50.772;8.768;2023-02-24T12:54:38;6.10;99.90
2387;DHT22;49473;50.772;8.768;2023-02-24T12:57:12;6.10;99.90
2387;DHT22;49473;50.772;8.768;2023-02-24T12:59:44;6.00;99.90
2387;DHT22;49473;50.772;8.768;2023-02-24T13:02:16;6.10;99.90
2387;DHT22;49473;50.772;8.768;2023-02-24T13:04:54;6.10;99.90
2387;DHT22;49473;50.772;8.768;2023-02-24T13:07:47;6.10;99.90
2387;DHT22;49473;50.772;8.768;2023-02-24T13:10:27;6.00;99.90
2387;DHT22;49473;50.772;8.768;2023-02-24T13:13:04;6.00;99.90
2387;DHT22;49473;50.772;8.768;2023-02-24T13:15:35;6.00;99.90
2387;DHT22;49473;50.772;8.768;2023-02-24T13:18:01;5.90;99.90
2387;DHT22;49473;50.772;8.768;2023-02-24T13:20:31;5.70;99.90
2387;DHT22;49473;50.772;8.768;2023-02-24T13:22:59;5.60;99.90
2387;DHT22;49473;50.772;8.768;2023-02-24T13:25:30;5.50;99.90
2387;DHT22;49473;50.772;8.768;2023-02-24T13:28:02;5.40;99.90
2387;DHT22;49473;50.772;8.768;2023-02-24T13:30:38;5.40;99.90
2387;DHT22;49473;50.772;8.768;2023-02-24T13:33:20;5.20;99.90
2387;DHT22;49473;50.772;8.768;2023-02-24T13:35:48;5.20;99.90
2387;DHT22;49473;50.772;8.768;2023-02-24T13:38:32;5.20;99.90
2387;DHT22;49473;50.772;8.768;2023-02-24T13:41:22;5.10;99.90
2387;DHT22;49473;50.772;8.768;2023-02-24T13:43:57;5.00;99.90
2387;DHT22;49473;50.772;8.768;2023-02-24T13:46:28;4.90;99.90
2387;DHT22;49473;50.772;8.768;2023-02-24T13:49:03;4.80;99.90
2387;DHT22;49473;50.772;8.768;2023-02-24T13:51:58;4.70;99.90
2387;DHT22;49473;50.772;8.768;2023-02-24T13:54:40;4.60;99.90
2387;DHT22;49473;50.772;8.768;2023-02-24T13:57:35;4.70;99.90
2387;DHT22;49473;50.772;8.768;2023-02-24T14:00:10;4.80;99.90
2387;DHT22;49473;50.772;8.768;2023-02-24T14:02:46;4.90;99.90
2387;DHT22;49473;50.772;8.768;2023-02-24T14:05:19;5.00;99.90
2387;DHT22;49473;50.772;8.768;2023-02-24T14:07:48;5.00;99.90
2387;DHT22;49473;50.772;8.768;2023-02-24T14:10:17;5.00;99.90
2387;DHT22;49473;50.772;8.768;2023-02-24T14:12:46;5.00;99.90
2387;DHT22;49473;50.772;8.768;2023-02-24T14:15:26;5.00;99.90
2387;DHT22;49473;50.772;8.768;2023-02-24T14:17:56;5.00;99.90
2387;DHT22;49473;50.772;8.768;2023-02-24T14:20:25;4.80;99.90
2387;DHT22;49473;50.772;8.768;2023-02-24T14:22:56;4.70;99.90
2387;DHT22;49473;50.772;8.768;2023-02-24T14:25:25;4.80;99.90
2387;DHT22;49473;50.772;8.768;2023-02-24T14:27:54;4.80;99.90
2387;DHT22;49473;50.772;8.768;2023-02-24T14:30:25;4.80;99.90
2387;DHT22;49473;50.772;8.768;2023-02-24T14:32:52;4.70;99.90
2387;DHT22;49473;50.772;8.768;2023-02-24T14:35:26;4.70;99.90
2387;DHT22;49473;50.772;8.768;2023-02-24T14:37:55;4.60;99.90
2387;DHT22;49473;50.772;8.768;2023-02-24T14:40:22;4.50;99.90
2387;DHT22;49473;50.772;8.768;2023-02-24T14:42:50;4.60;99.90
2387;DHT22;49473;50.772;8.768;2023-02-24T14:45:21;4.50;99.90
2387;DHT22;49473;50.772;8.768;2023-02-24T14:47:50;4.50;99.90
2387;DHT22;49473;50.772;8.768;2023-02-24T14:50:18;4.50;99.90
2387;DHT22;49473;50.772;8.768;2023-02-24T14:52:48;4.50;99.90
2387;DHT22;49473;50.772;8.768;2023-02-24T14:55:19;4.40;99.90
2387;DHT22;49473;50.772;8.768;2023-02-24T14:57:53;4.40;99.90
2387;DHT22;49473;50.772;8.768;2023-02-24T15:00:24;4.30;99.90
2387;DHT22;49473;50.772;8.768;2023-02-24T15:02:57;4.20;99.90
2387;DHT22;49473;50.772;8.768;2023-02-24T15:05:26;4.20;99.90
2387;DHT22;49473;50.772;8.768;2023-02-24T15:07:54;4.20;99.90
2387;DHT22;49473;50.772;8.768;2023-02-24T15:10:25;4.20;99.90
2387;DHT22;49473;50.772;8.768;2023-02-24T15:12:55;4.20;99.90
2387;DHT22;49473;50.772;8.768;2023-02-24T15:15:24;4.20;99.90
2387;DHT22;49473;50.772;8.768;2023-02-24T15:17:54;4.20;99.90
2387;DHT22;49473;50.772;8.768;2023-02-24T15:20:27;4.10;99.90
2387;DHT22;49473;50.772;8.768;2023-02-24T15:22:58;4.10;99.90
2387;DHT22;49473;50.772;8.768;2023-02-24T15:25:27;4.10;99.90
2387;DHT22;49473;50.772;8.768;2023-02-24T15:27:55;4.10;99.90
2387;DHT22;49473;50.772;8.768;2023-02-24T15:30:32;4.10;99.90
2387;DHT22;49473;50.772;8.768;2023-02-24T15:33:01;4.00;99.90
2387;DHT22;49473;50.772;8.768;2023-02-24T15:35:30;4.00;99.90
2387;DHT22;49473;50.772;8.768;2023-02-24T15:38:00;4.00;99.90
2387;DHT22;49473;50.772;8.768;2023-02-24T15:40:28;4.00;99.90
2387;DHT22;49473;50.772;8.768;2023-02-24T15:42:58;4.00;99.90
2387;DHT22;49473;50.772;8.768;2023-02-24T15:45:29;3.90;99.90
2387;DHT22;49473;50.772;8.768;2023-02-24T15:47:58;3.90;99.90
2387;DHT22;49473;50.772;8.768;2023-02-24T15:50:26;3.90;99.90
2387;DHT22;49473;50.772;8.768;2023-02-24T15:52:56;3.90;99.90
2387;DHT22;49473;50.772;8.768;2023-02-24T15:55:26;4.00;99.90
2387;DHT22;49473;50.772;8.768;2023-02-24T15:57:58;3.90;99.90
2387;DHT22;49473;50.772;8.768;2023-02-24T16:00:25;3.80;99.90
2387;DHT22;49473;50.772;8.768;2023-02-24T16:02:52;3.80;99.90
2387;DHT22;49473;50.772;8.768;2023-02-24T16:05:19;3.80;99.90
2387;DHT22;49473;50.772;8.768;2023-02-24T16:07:46;3.80;99.90
2387;DHT22;49473;50.772;8.768;2023-02-24T16:10:16;3.80;99.90
2387;DHT22;49473;50.772;8.768;2023-02-24T16:12:49;3.80;99.90
2387;DHT22;49473;50.772;8.768;2023-02-24T16:15:23;3.80;99.90
2387;DHT22;49473;50.772;8.768;2023-02-24T16:17:51;3.90;99.90
2387;DHT22;49473;50.772;8.768;2023-02-24T16:20:20;3.90;99.90
2387;DHT22;49473;50.772;8.768;2023-02-24T16:22:53;3.80;99.90
2387;DHT22;49473;50.772;8.768;2023-02-24T16:25:21;3.90;99.90
2387;DHT22;49473;50.772;8.768;2023-02-24T16:27:49;3.90;99.90
2387;DHT22;49473;50.772;8.768;2023-02-24T16:30:24;3.90;99.90
2387;DHT22;49473;50.772;8.768;2023-02-24T16:32:54;3.90;99.90
2387;DHT22;49473;50.772;8.768;2023-02-24T16:35:21;3.90;99.90
2387;DHT22;49473;50.772;8.768;2023-02-24T16:37:48;3.90;99.90
2387;DHT22;49473;50.772;8.768;2023-02-24T16:40:20;3.90;99.90